createdAt,value
2022-11-16T00:02:13.935Z,96121.00
2022-11-16T00:04:42.994Z,96101.00
2022-11-16T00:07:11.782Z,96055.00
2022-11-16T00:09:41.282Z,96116.00
2022-11-16T00:12:12.565Z,96121.00
2022-11-16T00:14:40.663Z,96129.00
2022-11-16T00:17:08.757Z,96114.00
2022-11-16T00:19:36.876Z,96101.00
2022-11-16T00:22:05.010Z,96108.00
2022-11-16T00:24:33.112Z,96104.00
2022-11-16T00:27:02.603Z,96108.00
2022-11-16T00:29:30.669Z,96100.00
2022-11-16T00:31:58.807Z,96095.00
2022-11-16T00:34:28.255Z,96088.00
2022-11-16T00:36:56.343Z,96078.00
2022-11-16T00:39:25.609Z,96080.00
2022-11-16T00:41:53.743Z,96084.00
2022-11-16T00:44:23.264Z,96088.00
2022-11-16T00:46:51.719Z,96073.00
2022-11-16T00:49:19.797Z,96078.00
2022-11-16T00:51:47.921Z,96090.00
2022-11-16T00:54:16.084Z,96070.00
2022-11-16T00:56:44.162Z,96060.00
2022-11-16T00:59:13.037Z,96054.00
2022-11-16T01:01:44.788Z,96047.00
2022-11-16T01:04:13.233Z,96003.00
2022-11-16T01:06:41.358Z,96034.00
2022-11-16T01:09:09.570Z,96033.00
2022-11-16T01:11:52.255Z,96036.00
2022-11-16T01:14:20.390Z,96043.00
2022-11-16T01:16:52.102Z,96037.00
2022-11-16T01:19:21.754Z,96024.00
2022-11-16T01:21:49.905Z,96021.00
2022-11-16T01:24:18.002Z,96024.00
2022-11-16T01:26:46.079Z,96012.00
2022-11-16T01:29:15.059Z,96006.00
2022-11-16T01:31:48.244Z,96015.00
2022-11-16T01:34:17.838Z,96007.00
2022-11-16T01:36:46.626Z,96006.00
2022-11-16T01:39:16.966Z,96005.00
2022-11-16T01:41:55.077Z,96007.00
2022-11-16T01:45:01.264Z,95987.00
2022-11-16T01:47:30.646Z,95998.00
2022-11-16T01:50:09.864Z,95985.00
2022-11-16T01:52:48.278Z,95985.00
2022-11-16T01:55:17.371Z,95915.00
2022-11-16T01:57:58.926Z,95990.00
2022-11-16T02:00:29.699Z,95994.00
2022-11-16T02:03:11.772Z,95989.00
2022-11-16T02:06:14.940Z,95994.00
2022-11-16T02:09:27.413Z,95995.00
2022-11-16T02:12:24.250Z,95996.00
2022-11-16T02:15:10.729Z,95996.00
2022-11-16T02:17:53.051Z,95990.00
2022-11-16T02:20:53.474Z,95983.00
2022-11-16T02:24:03.810Z,95980.00
2022-11-16T02:27:17.318Z,95922.00
2022-11-16T02:29:52.356Z,95964.00
2022-11-16T02:32:29.487Z,95949.00
2022-11-16T02:35:05.906Z,95960.00
2022-11-16T02:37:41.416Z,95970.00
2022-11-16T02:40:15.855Z,95896.00
2022-11-16T02:42:52.389Z,95954.00
2022-11-16T02:45:26.485Z,95958.00
2022-11-16T02:48:01.097Z,95972.00
2022-11-16T02:50:31.951Z,95975.00
2022-11-16T02:53:00.127Z,95975.00
2022-11-16T02:55:34.876Z,95974.00
2022-11-16T02:58:06.963Z,95977.00
2022-11-16T03:00:46.695Z,95983.00
2022-11-16T03:03:30.533Z,95973.00
2022-11-16T03:06:07.275Z,95986.00
2022-11-16T03:08:40.899Z,95989.00
2022-11-16T03:11:30.741Z,95977.00
2022-11-16T03:14:06.885Z,95950.00
2022-11-16T03:16:40.908Z,95951.00
2022-11-16T03:19:14.575Z,95949.00
2022-11-16T03:21:49.442Z,95946.00
2022-11-16T03:24:18.282Z,95933.00
2022-11-16T03:26:54.474Z,95936.00
2022-11-16T03:29:31.370Z,95934.00
2022-11-16T03:32:13.886Z,95924.00
2022-11-16T03:34:48.389Z,95936.00
2022-11-16T03:37:17.332Z,95944.00
2022-11-16T03:39:46.574Z,95899.00
2022-11-16T03:42:15.110Z,95946.00
2022-11-16T03:44:48.080Z,95938.00
2022-11-16T03:47:17.772Z,95932.00
2022-11-16T03:49:47.694Z,95939.00
2022-11-16T03:52:20.037Z,95955.00
2022-11-16T03:54:50.106Z,95946.00
2022-11-16T03:57:18.874Z,95894.00
2022-11-16T03:59:53.287Z,95965.00
2022-11-16T04:02:22.753Z,95952.00
2022-11-16T04:05:10.533Z,95959.00
2022-11-16T04:07:56.346Z,95966.00
2022-11-16T04:10:42.815Z,95958.00
2022-11-16T04:13:32.113Z,95957.00
2022-11-16T04:16:18.582Z,95964.00
2022-11-16T04:19:06.192Z,95959.00
2022-11-16T04:21:57.197Z,95961.00
2022-11-16T04:24:36.465Z,95962.00
2022-11-16T04:27:27.302Z,95954.00
2022-11-16T04:29:59.666Z,95953.00
2022-11-16T04:32:45.918Z,95958.00
2022-11-16T04:35:33.486Z,95960.00
2022-11-16T04:38:02.163Z,95953.00
2022-11-16T04:40:34.181Z,95960.00
2022-11-16T04:43:03.841Z,95957.00
2022-11-16T04:45:52.664Z,95959.00
2022-11-16T04:48:24.866Z,95956.00
2022-11-16T04:50:56.646Z,95957.00
2022-11-16T04:53:27.947Z,95947.00
2022-11-16T04:56:13.911Z,95938.00
2022-11-16T04:58:42.635Z,95801.00
2022-11-16T05:01:11.582Z,95787.00
2022-11-16T05:03:39.702Z,95792.00
2022-11-16T05:06:10.009Z,95801.00
2022-11-16T05:08:38.491Z,95797.00
2022-11-16T05:11:07.029Z,95779.00
2022-11-16T05:13:35.234Z,95799.00
2022-11-16T05:16:04.095Z,95807.00
2022-11-16T05:18:33.161Z,95814.00
2022-11-16T05:21:00.546Z,95807.00
2022-11-16T05:23:50.378Z,95808.00
2022-11-16T05:26:21.659Z,95809.00
2022-11-16T05:28:50.443Z,95811.00
2022-11-16T05:31:18.629Z,95835.00
2022-11-16T05:33:46.716Z,95841.00
2022-11-16T05:36:16.312Z,95844.00
2022-11-16T05:38:45.780Z,95876.00
2022-11-16T05:41:14.123Z,95970.00
2022-11-16T05:43:42.941Z,96003.00
2022-11-16T05:46:17.409Z,95918.00
2022-11-16T05:48:47.103Z,95914.00
2022-11-16T05:51:15.477Z,95905.00
2022-11-16T05:53:45.605Z,96015.00
2022-11-16T05:56:19.215Z,95987.00
2022-11-16T05:58:47.851Z,96020.00
2022-11-16T06:01:16.523Z,95921.00
2022-11-16T06:03:44.872Z,95916.00
2022-11-16T06:06:13.251Z,95928.00
2022-11-16T06:08:42.975Z,95929.00
2022-11-16T06:11:18.707Z,95931.00
2022-11-16T06:13:46.985Z,95729.00
2022-11-16T06:16:15.279Z,95717.00
2022-11-16T06:18:46.548Z,95749.00
2022-11-16T06:21:19.400Z,95763.00
2022-11-16T06:23:49.161Z,95726.00
2022-11-16T06:26:19.160Z,95754.00
2022-11-16T06:28:48.061Z,95775.00
2022-11-16T06:31:16.166Z,95775.00
2022-11-16T06:33:44.259Z,95765.00
2022-11-16T06:36:20.601Z,95751.00
2022-11-16T06:38:49.478Z,95748.00
2022-11-16T06:41:19.945Z,95746.00
2022-11-16T06:43:50.428Z,95766.00
2022-11-16T06:46:21.924Z,95758.00
2022-11-16T06:48:50.070Z,95755.00
2022-11-16T06:51:19.163Z,95759.00
2022-11-16T06:53:48.243Z,95756.00
2022-11-16T06:56:17.321Z,95730.00
2022-11-16T06:58:53.637Z,95772.00
2022-11-16T07:01:22.834Z,95777.00
2022-11-16T07:03:53.632Z,95737.00
2022-11-16T07:06:22.489Z,95749.00
2022-11-16T07:08:50.922Z,95738.00
2022-11-16T07:11:24.058Z,95780.00
2022-11-16T07:13:54.491Z,95772.00
2022-11-16T07:16:23.047Z,95799.00
2022-11-16T07:18:59.252Z,95790.00
2022-11-16T07:21:30.366Z,95776.00
2022-11-16T07:24:00.433Z,95929.00
2022-11-16T07:26:31.045Z,95794.00
2022-11-16T07:29:06.048Z,95776.00
2022-11-16T07:31:36.568Z,95777.00
2022-11-16T07:34:33.344Z,95768.00
2022-11-16T07:37:10.711Z,95775.00
2022-11-16T07:39:39.029Z,95772.00
2022-11-16T07:42:12.256Z,95767.00
2022-11-16T07:44:52.953Z,95755.00
2022-11-16T07:47:21.133Z,95761.00
2022-11-16T07:49:49.499Z,95744.00
2022-11-16T07:52:23.404Z,95909.00
2022-11-16T07:54:57.695Z,95725.00
2022-11-16T07:57:28.068Z,95727.00
2022-11-16T07:59:59.930Z,95757.00
2022-11-16T08:02:30.704Z,95734.00
2022-11-16T08:04:58.859Z,95715.00
2022-11-16T08:07:29.518Z,95722.00
2022-11-16T08:09:58.150Z,95715.00
2022-11-16T08:12:26.705Z,95710.00
2022-11-16T08:14:56.315Z,95744.00
2022-11-16T08:17:26.364Z,95742.00
2022-11-16T08:19:55.282Z,95745.00
2022-11-16T08:22:23.858Z,95734.00
2022-11-16T08:24:51.986Z,95731.00
2022-11-16T08:27:20.303Z,95722.00
2022-11-16T08:29:52.997Z,95673.00
2022-11-16T08:32:22.037Z,95708.00
2022-11-16T08:34:52.144Z,95711.00
2022-11-16T08:37:20.368Z,95706.00
2022-11-16T08:39:49.567Z,95704.00
2022-11-16T08:42:17.895Z,95697.00
2022-11-16T08:44:48.799Z,95734.00
2022-11-16T08:47:19.790Z,95717.00
2022-11-16T08:49:58.062Z,95732.00
2022-11-16T08:52:28.661Z,95750.00
2022-11-16T08:54:57.586Z,95734.00
2022-11-16T08:57:25.719Z,95729.00
2022-11-16T08:59:58.591Z,95739.00
2022-11-16T09:02:26.653Z,95738.00
2022-11-16T09:04:57.356Z,95738.00
2022-11-16T09:07:25.785Z,95767.00
2022-11-16T09:09:53.931Z,95742.00
2022-11-16T09:12:21.994Z,95742.00
2022-11-16T09:14:50.104Z,95736.00
2022-11-16T09:17:22.965Z,95744.00
2022-11-16T09:19:51.446Z,95760.00
2022-11-16T09:22:20.887Z,95753.00
2022-11-16T09:24:49.009Z,95751.00
2022-11-16T09:27:17.439Z,95752.00
2022-11-16T09:29:45.571Z,95775.00
2022-11-16T09:32:13.653Z,95787.00
2022-11-16T09:34:41.717Z,95779.00
2022-11-16T09:37:09.968Z,95782.00
2022-11-16T09:39:39.346Z,95785.00
2022-11-16T09:42:29.587Z,95809.00
2022-11-16T09:45:04.857Z,95738.00
2022-11-16T09:47:48.923Z,95790.00
2022-11-16T09:50:46.069Z,95806.00
2022-11-16T09:53:26.804Z,95785.00
2022-11-16T09:56:01.775Z,95805.00
2022-11-16T09:58:37.266Z,95785.00
2022-11-16T10:01:21.985Z,95777.00
2022-11-16T10:03:56.279Z,95789.00
2022-11-16T10:06:36.511Z,95788.00
2022-11-16T10:09:05.037Z,95780.00
2022-11-16T10:12:00.275Z,95778.00
2022-11-16T10:15:16.738Z,95657.00
2022-11-16T10:18:09.609Z,95673.00
2022-11-16T10:21:00.133Z,95648.00
2022-11-16T10:23:49.752Z,95833.00
2022-11-16T10:26:30.979Z,95593.00
2022-11-16T10:29:22.275Z,95610.00
2022-11-16T10:32:14.396Z,95676.00
2022-11-16T10:34:51.619Z,95716.00
2022-11-16T10:37:21.103Z,95703.00
2022-11-16T10:39:53.103Z,95682.00
2022-11-16T10:42:30.351Z,95675.00
2022-11-16T10:45:07.390Z,95672.00
2022-11-16T10:47:44.614Z,95538.00
2022-11-16T10:50:38.355Z,95515.00
2022-11-16T10:53:06.660Z,95575.00
2022-11-16T10:55:34.717Z,95568.00
2022-11-16T10:58:06.688Z,95545.00
2022-11-16T11:00:51.672Z,95585.00
2022-11-16T11:03:32.997Z,95557.00
2022-11-16T11:06:01.496Z,95572.00
2022-11-16T11:08:32.260Z,95507.00
2022-11-16T11:11:23.332Z,95538.00
2022-11-16T11:14:10.041Z,95549.00
2022-11-16T11:16:41.403Z,95550.00
2022-11-16T11:19:20.744Z,95543.00
2022-11-16T11:21:50.000Z,95539.00
2022-11-16T11:27:07.539Z,95525.00
2022-11-16T11:29:39.579Z,95531.00
2022-11-16T11:32:22.445Z,95534.00
2022-11-16T11:34:54.897Z,95516.00
2022-11-16T11:37:28.491Z,95448.00
2022-11-16T11:40:23.345Z,95522.00
2022-11-16T11:43:00.906Z,95532.00
2022-11-16T11:45:41.572Z,95546.00
2022-11-16T11:48:35.583Z,95508.00
2022-11-16T11:51:13.184Z,95509.00
2022-11-16T11:53:52.783Z,95509.00
2022-11-16T11:56:21.267Z,95531.00
2022-11-16T11:58:51.626Z,95516.00
2022-11-16T12:02:03.389Z,95497.00
2022-11-16T12:05:03.795Z,95524.00
2022-11-16T12:07:55.345Z,95530.00
2022-11-16T12:10:38.997Z,95522.00
2022-11-16T12:13:34.796Z,95524.00
2022-11-16T12:16:18.360Z,95525.00
2022-11-16T12:19:17.251Z,95527.00
2022-11-16T12:22:04.038Z,95532.00
2022-11-16T12:24:56.675Z,95525.00
2022-11-16T12:27:38.380Z,95517.00
2022-11-16T12:30:14.338Z,95523.00
2022-11-16T12:33:11.726Z,95503.00
2022-11-16T12:35:58.855Z,95505.00
2022-11-16T12:38:45.956Z,95537.00
2022-11-16T12:41:47.740Z,95531.00
2022-11-16T12:44:26.819Z,95541.00
2022-11-16T12:47:08.095Z,95524.00
2022-11-16T12:50:14.691Z,95539.00
2022-11-16T12:53:10.520Z,95528.00
2022-11-16T12:55:54.452Z,95507.00
2022-11-16T12:58:38.923Z,95518.00
2022-11-16T13:01:19.111Z,95524.00
2022-11-16T13:03:53.552Z,95519.00
2022-11-16T13:06:29.731Z,95541.00
2022-11-16T13:09:08.319Z,95520.00
2022-11-16T13:11:42.907Z,95504.00
2022-11-16T13:14:19.345Z,95510.00
2022-11-16T13:16:49.203Z,95511.00
2022-11-16T13:19:19.346Z,95515.00
2022-11-16T13:21:56.752Z,95499.00
2022-11-16T13:24:39.690Z,95504.00
2022-11-16T13:27:24.839Z,95519.00
2022-11-16T13:30:05.033Z,95477.00
2022-11-16T13:32:51.060Z,95517.00
2022-11-16T13:35:20.939Z,95572.00
2022-11-16T13:37:50.448Z,95573.00
2022-11-16T13:40:31.381Z,95558.00
2022-11-16T13:43:16.714Z,95572.00
2022-11-16T13:45:55.479Z,95549.00
2022-11-16T13:48:32.640Z,95552.00
2022-11-16T13:51:05.381Z,95542.00
2022-11-16T13:54:37.826Z,95547.00
2022-11-16T13:56:29.318Z,95543.00
2022-11-16T13:58:59.875Z,95528.00
2022-11-16T14:01:56.559Z,95506.00
2022-11-16T14:04:57.846Z,95503.00
2022-11-16T14:07:32.913Z,95534.00
2022-11-16T14:10:02.036Z,95493.00
2022-11-16T14:13:01.191Z,95462.00
2022-11-16T14:15:38.954Z,95581.00
2022-11-16T14:18:35.117Z,95887.00
2022-11-16T14:21:17.982Z,95888.00
2022-11-16T14:24:11.079Z,95559.00
2022-11-16T14:26:57.739Z,95588.00
2022-11-16T14:29:56.552Z,95626.00
2022-11-16T14:32:29.562Z,95611.00
2022-11-16T14:35:00.050Z,95635.00
2022-11-16T14:37:39.719Z,95559.00
2022-11-16T14:40:17.750Z,95613.00
2022-11-16T14:43:17.722Z,95644.00
2022-11-16T14:45:40.774Z,95627.00
2022-11-16T14:48:19.442Z,95655.00
2022-11-16T14:51:05.113Z,95686.00
2022-11-16T14:53:36.482Z,95681.00
2022-11-16T14:56:11.654Z,95680.00
2022-11-16T14:58:40.619Z,95664.00
2022-11-16T15:01:15.371Z,95668.00
2022-11-16T15:03:55.629Z,95650.00
2022-11-16T15:06:26.773Z,95657.00
2022-11-16T15:09:00.170Z,95659.00
2022-11-16T15:11:46.329Z,95648.00
2022-11-16T15:14:20.702Z,95621.00
2022-11-16T15:16:51.900Z,95598.00
2022-11-16T15:19:22.219Z,95647.00
2022-11-16T15:21:55.106Z,95659.00
2022-11-16T15:24:31.043Z,95639.00
2022-11-16T15:27:12.524Z,95627.00
2022-11-16T15:29:40.727Z,95652.00
2022-11-16T15:32:17.063Z,95657.00
2022-11-16T15:34:51.550Z,95606.00
2022-11-16T15:37:29.618Z,95855.00
2022-11-16T15:39:58.992Z,95669.00
2022-11-16T15:42:29.214Z,95646.00
2022-11-16T15:45:00.163Z,95648.00
2022-11-16T15:47:29.004Z,95644.00
2022-11-16T15:49:59.094Z,95635.00
2022-11-16T15:52:44.494Z,95650.00
2022-11-16T15:55:24.703Z,95659.00
2022-11-16T15:58:14.027Z,95659.00
2022-11-16T16:00:43.499Z,95648.00
2022-11-16T16:03:22.803Z,95646.00
2022-11-16T16:05:53.012Z,95663.00
2022-11-16T16:08:31.539Z,95670.00
2022-11-16T16:11:11.295Z,95670.00
2022-11-16T16:13:43.086Z,95643.00
2022-11-16T16:16:36.201Z,95667.00
2022-11-16T16:19:10.034Z,95657.00
2022-11-16T16:21:46.364Z,95666.00
2022-11-16T16:24:39.323Z,95662.00
2022-11-16T16:27:17.906Z,95691.00
2022-11-16T16:29:47.122Z,95696.00
2022-11-16T16:32:28.713Z,95607.00
2022-11-16T16:34:59.266Z,95679.00
2022-11-16T16:37:32.344Z,95676.00
2022-11-16T16:40:01.289Z,95667.00
2022-11-16T16:42:29.778Z,95658.00
2022-11-16T16:45:02.830Z,95636.00
2022-11-16T16:47:32.493Z,95685.00
2022-11-16T16:50:00.601Z,95673.00
2022-11-16T16:52:30.463Z,95676.00
2022-11-16T16:54:58.595Z,95674.00
2022-11-16T16:57:26.650Z,95676.00
2022-11-16T16:59:55.086Z,95674.00
2022-11-16T17:02:25.429Z,95671.00
2022-11-16T17:04:53.822Z,95687.00
2022-11-16T17:07:21.989Z,95796.00
2022-11-16T17:09:51.566Z,95611.00
2022-11-16T17:12:19.744Z,95583.00
2022-11-16T17:14:52.174Z,95596.00
2022-11-16T17:17:21.139Z,95596.00
2022-11-16T17:19:49.275Z,95585.00
2022-11-16T17:22:17.920Z,95562.00
2022-11-16T17:24:46.012Z,95577.00
2022-11-16T17:27:15.500Z,95591.00
2022-11-16T17:29:43.795Z,95598.00
2022-11-16T17:32:12.243Z,95541.00
2022-11-16T17:34:41.460Z,95573.00
2022-11-16T17:37:09.735Z,95569.00
2022-11-16T17:39:38.152Z,95652.00
2022-11-16T17:42:06.534Z,95643.00
2022-11-16T17:44:38.051Z,95643.00
2022-11-16T17:47:07.798Z,95631.00
2022-11-16T17:49:36.800Z,95642.00
2022-11-16T17:52:06.152Z,95656.00
2022-11-16T17:54:34.811Z,95664.00
2022-11-16T17:57:02.872Z,95728.00
2022-11-16T17:59:30.944Z,95719.00
2022-11-16T18:02:00.359Z,95844.00
2022-11-16T18:04:28.506Z,95852.00
2022-11-16T18:06:56.879Z,95682.00
2022-11-16T18:09:27.800Z,95698.00
2022-11-16T18:11:57.331Z,95685.00
2022-11-16T18:14:25.479Z,95662.00
2022-11-16T18:16:53.647Z,95644.00
2022-11-16T18:19:23.094Z,95641.00
2022-11-16T18:21:51.527Z,95688.00
2022-11-16T18:24:19.620Z,95678.00
2022-11-16T18:26:48.884Z,95655.00
2022-11-16T18:29:19.167Z,95647.00
2022-11-16T18:31:47.247Z,95614.00
2022-11-16T18:34:16.166Z,95640.00
2022-11-16T18:36:46.362Z,95648.00
2022-11-16T18:39:14.472Z,95644.00
2022-11-16T18:41:50.097Z,95647.00
2022-11-16T18:44:22.681Z,95856.00
2022-11-16T18:46:50.776Z,95675.00
2022-11-16T18:49:18.913Z,95826.00
2022-11-16T18:51:48.355Z,95810.00
2022-11-16T18:54:16.720Z,95611.00
2022-11-16T18:56:44.802Z,95774.00
2022-11-16T18:59:12.878Z,95842.00
2022-11-16T19:01:40.993Z,95648.00
2022-11-16T19:04:10.399Z,95646.00
2022-11-16T19:06:38.566Z,95644.00
2022-11-16T19:09:09.671Z,95789.00
2022-11-16T19:11:38.190Z,95791.00
2022-11-16T19:14:07.929Z,95787.00
2022-11-16T19:16:36.594Z,95752.00
2022-11-16T19:19:05.935Z,95799.00
2022-11-16T19:21:34.145Z,95790.00
2022-11-16T19:24:02.332Z,95798.00
2022-11-16T19:26:32.264Z,95799.00
2022-11-16T19:29:02.035Z,95790.00
2022-11-16T19:31:32.936Z,95779.00
2022-11-16T19:34:04.339Z,95797.00
2022-11-16T19:36:33.994Z,95654.00
2022-11-16T19:39:02.994Z,95773.00
2022-11-16T19:41:32.871Z,95704.00
2022-11-16T19:44:02.087Z,95814.00
2022-11-16T19:46:33.756Z,95742.00
2022-11-16T19:49:03.384Z,95755.00
2022-11-16T19:51:34.122Z,95753.00
2022-11-16T19:54:03.995Z,95739.00
2022-11-16T19:56:33.437Z,95802.00
2022-11-16T19:59:01.839Z,95810.00
2022-11-16T20:01:30.150Z,95802.00
2022-11-16T20:04:00.636Z,95622.00
2022-11-16T20:06:31.464Z,95769.00
2022-11-16T20:09:04.054Z,95783.00
2022-11-16T20:11:34.629Z,95771.00
2022-11-16T20:14:04.718Z,95765.00
2022-11-16T20:16:39.010Z,95704.00
2022-11-16T20:19:08.541Z,95609.00
2022-11-16T20:21:39.213Z,95792.00
2022-11-16T20:24:10.923Z,95636.00
2022-11-16T20:26:44.619Z,95624.00
2022-11-16T20:29:13.980Z,95791.00
2022-11-16T20:31:45.262Z,95780.00
2022-11-16T20:34:15.315Z,95781.00
2022-11-16T20:36:45.687Z,95785.00
2022-11-16T20:39:15.832Z,95772.00
2022-11-16T20:41:45.443Z,95763.00
2022-11-16T20:44:18.250Z,95787.00
2022-11-16T20:46:46.463Z,95626.00
2022-11-16T20:49:14.769Z,95800.00
2022-11-16T20:51:43.172Z,95725.00
2022-11-16T20:54:11.445Z,95673.00
2022-11-16T20:56:39.541Z,95549.00
2022-11-16T20:59:09.146Z,95572.00
2022-11-16T21:01:37.362Z,95775.00
2022-11-16T21:04:07.558Z,95703.00
2022-11-16T21:06:35.820Z,95822.00
2022-11-16T21:09:04.680Z,95812.00
2022-11-16T21:11:54.721Z,95781.00
2022-11-16T21:14:23.920Z,95793.00
2022-11-16T21:16:52.011Z,95772.00
2022-11-16T21:19:20.233Z,95777.00
2022-11-16T21:21:48.368Z,95779.00
2022-11-16T21:24:16.444Z,95732.00
2022-11-16T21:26:44.488Z,95726.00
2022-11-16T21:29:12.620Z,95780.00
2022-11-16T21:31:42.001Z,95781.00
2022-11-16T21:34:10.160Z,95768.00
2022-11-16T21:36:38.191Z,95769.00
2022-11-16T21:39:06.400Z,95761.00
2022-11-16T21:41:34.687Z,95766.00
2022-11-16T21:44:02.711Z,95769.00
2022-11-16T21:46:30.759Z,95769.00
2022-11-16T21:49:00.452Z,95729.00
2022-11-16T21:51:28.973Z,95797.00
2022-11-16T21:53:57.168Z,95802.00
2022-11-16T21:56:26.918Z,95775.00
2022-11-16T21:58:55.415Z,95721.00
2022-11-16T22:01:24.789Z,95787.00
2022-11-16T22:04:06.919Z,95541.00
2022-11-16T22:06:56.249Z,95569.00
2022-11-16T22:09:24.338Z,95714.00
2022-11-16T22:11:52.395Z,95727.00
2022-11-16T22:14:20.462Z,95744.00
2022-11-16T22:16:48.513Z,95740.00
2022-11-16T22:19:16.608Z,95751.00
2022-11-16T22:21:46.010Z,95734.00
2022-11-16T22:24:14.281Z,95727.00
2022-11-16T22:26:42.418Z,95648.00
2022-11-16T22:29:10.538Z,95717.00
2022-11-16T22:31:38.604Z,95720.00
2022-11-16T22:34:06.835Z,95726.00
2022-11-16T22:36:34.871Z,95719.00
2022-11-16T22:39:04.485Z,95730.00
2022-11-16T22:41:32.547Z,95726.00
2022-11-16T22:44:00.607Z,95729.00
2022-11-16T22:46:28.753Z,95753.00
2022-11-16T22:48:56.951Z,95609.00
2022-11-16T22:51:27.601Z,95772.00
2022-11-16T22:53:57.427Z,95759.00
2022-11-16T22:56:28.014Z,95728.00
2022-11-16T22:58:56.978Z,95723.00
2022-11-16T23:01:25.883Z,95730.00
2022-11-16T23:03:53.999Z,95705.00
2022-11-16T23:06:22.110Z,95715.00
2022-11-16T23:08:50.851Z,95745.00
2022-11-16T23:11:38.890Z,95714.00
2022-11-16T23:14:31.154Z,95726.00
2022-11-16T23:16:59.728Z,95715.00
2022-11-16T23:19:45.537Z,95663.00
2022-11-16T23:22:34.003Z,95556.00
2022-11-16T23:25:20.465Z,95719.00
2022-11-16T23:27:56.405Z,95699.00
2022-11-16T23:30:27.202Z,95682.00
2022-11-16T23:32:56.539Z,95679.00
2022-11-16T23:35:24.783Z,95679.00
2022-11-16T23:37:58.413Z,95686.00
2022-11-16T23:40:29.400Z,95673.00
2022-11-16T23:43:15.898Z,95647.00
2022-11-16T23:45:46.294Z,95657.00
2022-11-16T23:48:17.317Z,95310.00
2022-11-16T23:50:46.859Z,95362.00
2022-11-16T23:53:15.307Z,95354.00
2022-11-16T23:55:43.407Z,95364.00
2022-11-16T23:58:15.136Z,95388.00
